FranceFixed distance
La SaintéLyon
30 Nov – 1 Dec2024
Distance
82km
Finishers
6,2495,534 men704 women
Winning time
5:52:21h
Median pace
6.86km/h
Pace distribution
6,238 finishers · 4.62–13.96 km/h · mean 7.02
Every finisher ran the same 82 km course, so these paces are directly comparable.
Histogram of finisher pace. 6,238 finishers ranged from 4.62 to 13.96 kilometres per hour, with a mean of 7.02 and a median of 6.86. The busiest band is 6.5 to 7.0 kilometres per hour, with 1,188 finishers.
Results
Ranks 2,901–2,950 of 6,238
| Rank | Runner | Time | Pace | Cat. | Placing |
|---|---|---|---|---|---|
| 2907 | Wallaert, CesarFranceMan | 11:47:37h | 6.95 | M35 | 2706th M · 429th M35 |
| 2908 | Gross, JimmyFranceMan *Vincennes | 11:47:42h | 6.95 | M35 | 2707th M · 430th M35 |
| 2909 | Aucagne, MathieuFranceMan *Simandres | 11:47:46h | 6.95 | M23 | 2708th M · 1342nd M23 |
| 2910 | Mathieu, CyrilFranceMan Echappée des Bords de ... | 11:47:52h | 6.95 | M35 | 2709th M · 431st M35 |
| 2911 | Legave, ValentinFranceMan *Rennes | 11:47:58h | 6.95 | M23 | 2710th M · 1343rd M23 |
| 2912 | Mallah, OlivierFranceMan Avecplaisir | 11:48:02h | 6.95 | M45 | 2711th M · 223rd M45 |
| 2913 | Navarro, JeremieFranceMan | 11:48:06h | 6.95 | M35 | 2712th M · 432nd M35 |
| 2914 | Choulet, SylvainFranceMan | 11:48:10h | 6.95 | M50 | 2713th M · 119th M50 |
| 2915 | Candale, BriceFranceMan | 11:48:11h | 6.95 | M35 | 2714th M · 433rd M35 |
| 2916 | Therville, AntoineFranceMan | 11:48:12h | 6.95 | MU23 | 2715th M · 195th MU23 |
| 2917 | Begin, CapucineFranceWoman *Paris | 11:48:13h | 6.95 | W23 | 202nd F · 106th W23 |
| 2917 | Malsert, CelestinFranceMan *Lyon | 11:48:13h | 6.95 | MU23 | 2716th M · 196th MU23 |
| 2917 | Gauvain, AlbericFranceMan | 11:48:13h | 6.95 | MU23 | 2716th M · 196th MU23 |
| 2920 | Abraham, LionelFranceMan | 11:48:18h | 6.95 | M45 | 2718th M · 224th M45 |
| 2921 | Boudjema, AbdelkaderFranceMan Usol Trail | 11:48:22h | 6.95 | M50 | 2719th M · 120th M50 |
| 2921 | Joannon, PhilippeFranceMan Usol Trail | 11:48:22h | 6.95 | M50 | 2719th M · 120th M50 |
| 2923 | Perret, CelineFranceWoman Usol Trail | 11:48:23h | 6.95 | W45 | 203rd F · 20th W45 |
| 2924 | Deroy, ThomasFranceMan Team Energy | 11:48:28h | 6.95 | M35 | 2721st M · 434th M35 |
| 2925 | Di Piazza, RaphaelFranceMan *Paris | 11:48:29h | 6.94 | M23 | 2722nd M · 1344th M23 |
| 2926 | Hamon, ErwanFranceMan #Rin | 11:48:34h | 6.94 | M40 | 2723rd M · 339th M40 |
| 2927 | Torrekens, SebastienFranceMan Eurovia Picardie | 11:48:38h | 6.94 | M35 | 2724th M · 435th M35 |
| 2928 | Chevalier, JeromeFranceMan Athléforme 42 | 11:48:39h | 6.94 | M35 | 2725th M · 436th M35 |
| 2928 | Lemoine, SebastienFranceMan Eurovia | 11:48:39h | 6.94 | M40 | 2725th M · 340th M40 |
| 2930 | Kc, BinodFranceMan | 11:48:40h | 6.94 | M35 | 2727th M · 437th M35 |
| 2931 | Nardy, ValentinFranceMan | 11:48:41h | 6.94 | MU23 | 2728th M · 198th MU23 |
| 2932 | Aurelle, MathildeFranceWoman *Lyon | 11:48:45h | 6.94 | W23 | 204th F · 107th W23 |
| 2932 | Canete, JorisFranceMan Terre de Running Limonest | 11:48:45h | 6.94 | M23 | 2729th M · 1345th M23 |
| 2934 | Le Calve, MevenFranceMan | 11:48:52h | 6.94 | M23 | 2730th M · 1346th M23 |
| 2935 | Riff, LucasFranceMan les Tuches | 11:48:53h | 6.94 | M23 | 2731st M · 1347th M23 |
| 2936 | Michaut, ValerieFranceWoman SAM Paris 12 | 11:48:54h | 6.94 | W45 | 205th F · 21st W45 |
| 2938 | Pelisson, ElsaFranceWoman *La Boisse | 11:48:59h | 6.94 | W23 | 206th F · 108th W23 |
| 2938 | Cruz, DamienFranceMan | 11:48:59h | 6.94 | M40 | 2733rd M · 342nd M40 |
| 2940 | Colard, MaximeFranceMan | 11:49:04h | 6.94 | M23 | 2734th M · 1348th M23 |
| 2940 | Brisse, AurelienFranceMan | 11:49:04h | 6.94 | M35 | 2734th M · 438th M35 |
| 2942 | Perin, VincentFranceMan CAV | 11:49:06h | 6.94 | M45 | 2736th M · 225th M45 |
| 2942 | Lecogne, OlivierFranceMan C'Est Plus PAS Facile ... | 11:49:06h | 6.94 | M50 | 2736th M · 122nd M50 |
| 2944 | Rouquier, GeraldFranceMan Team Quiche | 11:49:08h | 6.94 | M50 | 2738th M · 123rd M50 |
| 2945 | Thomas Billot, YannickFranceMan Team Raidlight - Peyro... | 11:49:10h | 6.94 | M40 | 2739th M · 343rd M40 |
| 2946 | Turmeau, JonasFranceMan *Chelles | 11:49:11h | 6.94 | M23 | 2740th M · 1349th M23 |
| 2947 | Bastie, MarieFranceWoman Team Bertagne | 11:49:13h | 6.94 | W23 | 207th F · 109th W23 |
| 2947 | Cleuvenot, CedricFranceMan | 11:49:13h | 6.94 | M23 | 2741st M · 1350th M23 |
| 2949 | Pfeffer, NicolasFranceMan | 11:49:15h | 6.94 | M23 | 2742nd M · 1351st M23 |
| 2949 | Michaud, CorinneFranceWoman *Les Houches | 11:49:15h | 6.94 | W50 | 208th F · 5th W50 |
| 2949 | Fourmont, MaximeFranceMan *Clichy | 11:49:15h | 6.94 | M23 | 2742nd M · 1351st M23 |
| 2952 | Ledrole, PaulFranceMan | 11:49:19h | 6.94 | M23 | 2744th M · 1353rd M23 |
| 2953 | Carcenac, AlexandreFranceMan *Sèvres | 11:49:27h | 6.93 | M35 | 2745th M · 439th M35 |
| 2954 | Dal Pra, MaximeFranceMan | 11:49:33h | 6.93 | M45 | 2746th M · 226th M45 |
| 2955 | Lempicki, ClementLuxembourgMan Cadence | 11:49:42h | 6.93 | M23 | 2747th M · 1354th M23 |
| 2956 | Charpentier, FredericFranceMan *Eygalières | 11:49:46h | 6.93 | M35 | 2748th M · 440th M35 |
| 2956 | Plastre, AlexandreFranceMan Valence Triathlon | 11:49:46h | 6.93 | M35 | 2748th M · 440th M35 |
- 2907Wallaert, CesarFranceMan2706th M · 429th M35Time11:47:37hPace6.95Cat.M35
- 2908Gross, JimmyFranceMan*Vincennes2707th M · 430th M35Time11:47:42hPace6.95Cat.M35
- 2909Aucagne, MathieuFranceMan*Simandres2708th M · 1342nd M23Time11:47:46hPace6.95Cat.M23
- 2910Mathieu, CyrilFranceManEchappée des Bords de ...2709th M · 431st M35Time11:47:52hPace6.95Cat.M35
- 2911Legave, ValentinFranceMan*Rennes2710th M · 1343rd M23Time11:47:58hPace6.95Cat.M23
- 2912Mallah, OlivierFranceManAvecplaisir2711th M · 223rd M45Time11:48:02hPace6.95Cat.M45
- 2913Navarro, JeremieFranceMan2712th M · 432nd M35Time11:48:06hPace6.95Cat.M35
- 2914Choulet, SylvainFranceMan2713th M · 119th M50Time11:48:10hPace6.95Cat.M50
- 2915Candale, BriceFranceMan2714th M · 433rd M35Time11:48:11hPace6.95Cat.M35
- 2916Therville, AntoineFranceMan2715th M · 195th MU23Time11:48:12hPace6.95Cat.MU23
- 2917Begin, CapucineFranceWoman*Paris202nd F · 106th W23Time11:48:13hPace6.95Cat.W23
- 2917Malsert, CelestinFranceMan*Lyon2716th M · 196th MU23Time11:48:13hPace6.95Cat.MU23
- 2917Gauvain, AlbericFranceMan2716th M · 196th MU23Time11:48:13hPace6.95Cat.MU23
- 2920Abraham, LionelFranceMan2718th M · 224th M45Time11:48:18hPace6.95Cat.M45
- 2921Boudjema, AbdelkaderFranceManUsol Trail2719th M · 120th M50Time11:48:22hPace6.95Cat.M50
- 2921Joannon, PhilippeFranceManUsol Trail2719th M · 120th M50Time11:48:22hPace6.95Cat.M50
- 2923Perret, CelineFranceWomanUsol Trail203rd F · 20th W45Time11:48:23hPace6.95Cat.W45
- 2924Deroy, ThomasFranceManTeam Energy2721st M · 434th M35Time11:48:28hPace6.95Cat.M35
- 2925Di Piazza, RaphaelFranceMan*Paris2722nd M · 1344th M23Time11:48:29hPace6.94Cat.M23
- 2926Hamon, ErwanFranceMan#Rin2723rd M · 339th M40Time11:48:34hPace6.94Cat.M40
- 2927Torrekens, SebastienFranceManEurovia Picardie2724th M · 435th M35Time11:48:38hPace6.94Cat.M35
- 2928Chevalier, JeromeFranceManAthléforme 422725th M · 436th M35Time11:48:39hPace6.94Cat.M35
- 2928Lemoine, SebastienFranceManEurovia2725th M · 340th M40Time11:48:39hPace6.94Cat.M40
- 2930Kc, BinodFranceMan2727th M · 437th M35Time11:48:40hPace6.94Cat.M35
- 2931Nardy, ValentinFranceMan2728th M · 198th MU23Time11:48:41hPace6.94Cat.MU23
- 2932Aurelle, MathildeFranceWoman*Lyon204th F · 107th W23Time11:48:45hPace6.94Cat.W23
- 2932Canete, JorisFranceManTerre de Running Limonest2729th M · 1345th M23Time11:48:45hPace6.94Cat.M23
- 2934Le Calve, MevenFranceMan2730th M · 1346th M23Time11:48:52hPace6.94Cat.M23
- 2935Riff, LucasFranceManles Tuches2731st M · 1347th M23Time11:48:53hPace6.94Cat.M23
- 2936Michaut, ValerieFranceWomanSAM Paris 12205th F · 21st W45Time11:48:54hPace6.94Cat.W45
- 2938Pelisson, ElsaFranceWoman*La Boisse206th F · 108th W23Time11:48:59hPace6.94Cat.W23
- 2938Cruz, DamienFranceMan2733rd M · 342nd M40Time11:48:59hPace6.94Cat.M40
- 2940Colard, MaximeFranceMan2734th M · 1348th M23Time11:49:04hPace6.94Cat.M23
- 2940Brisse, AurelienFranceMan2734th M · 438th M35Time11:49:04hPace6.94Cat.M35
- 2942Perin, VincentFranceManCAV2736th M · 225th M45Time11:49:06hPace6.94Cat.M45
- 2942Lecogne, OlivierFranceManC'Est Plus PAS Facile ...2736th M · 122nd M50Time11:49:06hPace6.94Cat.M50
- 2944Rouquier, GeraldFranceManTeam Quiche2738th M · 123rd M50Time11:49:08hPace6.94Cat.M50
- 2945Thomas Billot, YannickFranceManTeam Raidlight - Peyro...2739th M · 343rd M40Time11:49:10hPace6.94Cat.M40
- 2946Turmeau, JonasFranceMan*Chelles2740th M · 1349th M23Time11:49:11hPace6.94Cat.M23
- 2947Bastie, MarieFranceWomanTeam Bertagne207th F · 109th W23Time11:49:13hPace6.94Cat.W23
- 2947Cleuvenot, CedricFranceMan2741st M · 1350th M23Time11:49:13hPace6.94Cat.M23
- 2949Pfeffer, NicolasFranceMan2742nd M · 1351st M23Time11:49:15hPace6.94Cat.M23
- 2949Michaud, CorinneFranceWoman*Les Houches208th F · 5th W50Time11:49:15hPace6.94Cat.W50
- 2949Fourmont, MaximeFranceMan*Clichy2742nd M · 1351st M23Time11:49:15hPace6.94Cat.M23
- 2952Ledrole, PaulFranceMan2744th M · 1353rd M23Time11:49:19hPace6.94Cat.M23
- 2953Carcenac, AlexandreFranceMan*Sèvres2745th M · 439th M35Time11:49:27hPace6.93Cat.M35
- 2954Dal Pra, MaximeFranceMan2746th M · 226th M45Time11:49:33hPace6.93Cat.M45
- 2955Lempicki, ClementLuxembourgManCadence2747th M · 1354th M23Time11:49:42hPace6.93Cat.M23
- 2956Charpentier, FredericFranceMan*Eygalières2748th M · 440th M35Time11:49:46hPace6.93Cat.M35
- 2956Plastre, AlexandreFranceManValence Triathlon2748th M · 440th M35Time11:49:46hPace6.93Cat.M35
Showing ranks 2,901–2,950 of 6,238